createdAt,value
2022-09-26T00:00:33.596Z,9.53
2022-09-26T00:03:25.522Z,9.56
2022-09-26T00:06:03.187Z,9.58
2022-09-26T00:08:36.443Z,9.62
2022-09-26T00:11:10.532Z,9.65
2022-09-26T00:13:43.816Z,9.68
2022-09-26T00:16:17.860Z,9.71
2022-09-26T00:18:52.938Z,9.73
2022-09-26T00:21:27.003Z,9.76
2022-09-26T00:24:00.898Z,9.78
2022-09-26T00:26:35.332Z,9.82
2022-09-26T00:29:10.055Z,9.86
2022-09-26T00:31:45.685Z,9.92
2022-09-26T00:34:21.626Z,9.98
2022-09-26T00:36:53.899Z,10.02
2022-09-26T00:39:29.490Z,10.05
2022-09-26T00:42:01.849Z,10.08
2022-09-26T00:44:49.345Z,10.09
2022-09-26T00:47:39.494Z,10.10
2022-09-26T00:50:18.325Z,10.09
2022-09-26T00:52:55.962Z,10.10
2022-09-26T00:55:32.329Z,10.13
2022-09-26T00:58:11.395Z,10.11
2022-09-26T01:00:47.892Z,10.12
2022-09-26T01:03:22.041Z,10.13
2022-09-26T01:05:55.190Z,10.15
2022-09-26T01:08:33.414Z,10.19
2022-09-26T01:11:06.121Z,10.21
2022-09-26T01:13:41.341Z,10.23
2022-09-26T01:16:13.773Z,10.25
2022-09-26T01:18:49.737Z,10.26
2022-09-26T01:21:46.122Z,10.27
2022-09-26T01:25:03.321Z,10.27
2022-09-26T01:28:16.999Z,10.22
2022-09-26T01:30:59.767Z,10.23
2022-09-26T01:33:54.919Z,10.22
2022-09-26T01:36:50.968Z,10.21
2022-09-26T01:39:36.253Z,10.22
2022-09-26T01:42:18.461Z,10.24
2022-09-26T01:45:04.620Z,10.28
2022-09-26T01:47:48.789Z,10.33
2022-09-26T01:50:28.778Z,10.36
2022-09-26T01:53:07.287Z,10.39
2022-09-26T01:55:46.810Z,10.39
2022-09-26T01:58:25.333Z,10.40
2022-09-26T02:01:04.101Z,10.42
2022-09-26T02:03:42.937Z,10.45
2022-09-26T02:06:19.998Z,10.48
2022-09-26T02:08:57.921Z,10.50
2022-09-26T02:11:31.444Z,10.52
2022-09-26T02:14:09.138Z,10.54
2022-09-26T02:16:48.678Z,10.56
2022-09-26T02:19:27.126Z,10.55
2022-09-26T02:22:01.433Z,10.58
2022-09-26T02:24:33.616Z,10.60
2022-09-26T02:27:07.554Z,10.62
2022-09-26T02:29:40.787Z,10.64
2022-09-26T02:32:17.273Z,10.66
2022-09-26T02:34:51.656Z,10.65
2022-09-26T02:37:29.200Z,10.66
2022-09-26T02:40:04.088Z,10.67
2022-09-26T02:42:43.774Z,10.69
2022-09-26T02:45:28.092Z,10.72
2022-09-26T02:48:27.619Z,10.75
2022-09-26T02:51:17.043Z,10.76
2022-09-26T02:54:06.725Z,10.78
2022-09-26T02:56:56.185Z,10.78
2022-09-26T02:59:35.196Z,10.77
2022-09-26T03:02:15.983Z,10.78
2022-09-26T03:04:55.403Z,10.79
2022-09-26T03:07:36.438Z,10.79
2022-09-26T03:10:13.278Z,10.78
2022-09-26T03:12:47.837Z,10.78
2022-09-26T03:15:20.913Z,10.76
2022-09-26T03:17:55.969Z,10.72
2022-09-26T03:20:29.401Z,10.71
2022-09-26T03:23:03.118Z,10.69
2022-09-26T03:25:36.910Z,10.64
2022-09-26T03:28:12.480Z,10.62
2022-09-26T03:30:45.065Z,10.61
2022-09-26T03:33:29.252Z,10.60
2022-09-26T03:36:04.875Z,10.60
2022-09-26T03:38:37.215Z,10.60
2022-09-26T03:41:15.749Z,10.59
2022-09-26T03:44:12.894Z,10.58
2022-09-26T03:47:04.471Z,10.56
2022-09-26T03:49:39.092Z,10.53
2022-09-26T03:52:12.827Z,10.50
2022-09-26T03:54:45.468Z,10.48
2022-09-26T03:57:21.148Z,10.46
2022-09-26T03:59:57.841Z,10.42
2022-09-26T04:02:33.764Z,10.38
2022-09-26T04:05:14.491Z,10.36
2022-09-26T04:07:47.347Z,10.34
2022-09-26T04:10:19.976Z,10.32
2022-09-26T04:12:52.099Z,10.30
2022-09-26T04:15:24.598Z,10.28
2022-09-26T04:18:05.912Z,10.28
2022-09-26T04:20:41.179Z,10.27
2022-09-26T04:23:13.645Z,10.25
2022-09-26T04:25:45.812Z,10.24
2022-09-26T04:28:19.682Z,10.24
2022-09-26T04:30:58.373Z,10.23
2022-09-26T04:33:32.702Z,10.22
2022-09-26T04:36:15.139Z,10.20
2022-09-26T04:38:47.419Z,10.20
2022-09-26T04:41:21.880Z,10.22
2022-09-26T04:43:57.123Z,10.23
2022-09-26T04:46:31.586Z,10.23
2022-09-26T04:49:06.130Z,10.22
2022-09-26T04:51:39.288Z,10.21
2022-09-26T04:54:11.989Z,10.21
2022-09-26T04:56:47.359Z,10.23
2022-09-26T04:59:19.768Z,10.23
2022-09-26T05:02:10.158Z,10.24
2022-09-26T05:04:48.364Z,10.24
2022-09-26T05:07:23.609Z,10.26
2022-09-26T05:09:55.673Z,10.24
2022-09-26T05:12:30.895Z,10.23
2022-09-26T05:15:07.616Z,10.24
2022-09-26T05:17:45.514Z,10.26
2022-09-26T05:20:20.487Z,10.30
2022-09-26T05:23:00.764Z,10.37
2022-09-26T05:25:57.669Z,10.41
2022-09-26T05:28:32.058Z,10.45
2022-09-26T05:31:07.534Z,10.47
2022-09-26T05:33:39.963Z,10.51
2022-09-26T05:36:14.508Z,10.55
2022-09-26T05:38:46.850Z,10.60
2022-09-26T05:41:21.141Z,10.65
2022-09-26T05:43:56.624Z,10.70
2022-09-26T05:46:32.045Z,10.75
2022-09-26T05:49:12.059Z,10.81
2022-09-26T05:51:45.259Z,10.87
2022-09-26T05:54:20.274Z,10.90
2022-09-26T05:56:56.436Z,10.94
2022-09-26T05:59:41.747Z,11.00
2022-09-26T06:02:40.595Z,11.06
2022-09-26T06:05:21.976Z,11.11
2022-09-26T06:08:16.632Z,11.18
2022-09-26T06:11:11.017Z,11.27
2022-09-26T06:13:46.022Z,11.34
2022-09-26T06:16:21.032Z,11.41
2022-09-26T06:18:55.924Z,11.48
2022-09-26T06:21:29.959Z,11.56
2022-09-26T06:24:14.271Z,11.63
2022-09-26T06:26:48.145Z,11.72
2022-09-26T06:29:20.988Z,11.82
2022-09-26T06:31:53.907Z,12.09
2022-09-26T06:34:52.415Z,12.98
2022-09-26T06:37:46.502Z,13.12
2022-09-26T06:40:18.927Z,13.07
2022-09-26T06:42:51.027Z,13.02
2022-09-26T06:45:41.785Z,12.97
2022-09-26T06:48:24.582Z,12.94
2022-09-26T06:51:06.885Z,12.91
2022-09-26T06:53:40.187Z,12.88
2022-09-26T06:56:12.616Z,12.84
2022-09-26T06:58:52.135Z,12.81
2022-09-26T07:01:29.207Z,12.81
2022-09-26T07:04:36.026Z,12.82
2022-09-26T07:07:31.231Z,12.81
2022-09-26T07:10:03.595Z,12.82
2022-09-26T07:12:45.081Z,12.80
2022-09-26T07:15:21.953Z,12.87
2022-09-26T07:17:54.141Z,12.94
2022-09-26T07:20:56.650Z,13.04
2022-09-26T07:23:41.719Z,13.12
2022-09-26T07:26:14.397Z,13.15
2022-09-26T07:28:52.174Z,13.15
2022-09-26T07:31:28.660Z,13.11
2022-09-26T07:34:25.230Z,13.13
2022-09-26T07:36:57.770Z,13.22
2022-09-26T07:39:32.479Z,13.37
2022-09-26T07:42:07.476Z,13.45
2022-09-26T07:45:20.465Z,13.45
2022-09-26T07:47:55.820Z,13.48
2022-09-26T07:50:54.203Z,13.52
2022-09-26T07:53:41.849Z,13.57
2022-09-26T07:56:35.548Z,13.60
2022-09-26T07:59:37.053Z,13.65
2022-09-26T08:02:34.133Z,13.74
2022-09-26T08:05:10.130Z,13.75
2022-09-26T08:07:43.846Z,13.82
2022-09-26T08:10:23.409Z,13.91
2022-09-26T08:13:14.340Z,14.01
2022-09-26T08:15:57.420Z,14.19
2022-09-26T08:18:34.517Z,14.35
2022-09-26T08:21:07.659Z,14.49
2022-09-26T08:23:40.174Z,14.68
2022-09-26T08:26:31.530Z,15.15
2022-09-26T08:29:16.630Z,15.51
2022-09-26T08:31:50.399Z,15.52
2022-09-26T08:34:25.500Z,15.55
2022-09-26T08:37:29.084Z,15.61
2022-09-26T08:40:24.582Z,15.70
2022-09-26T08:43:32.967Z,15.75
2022-09-26T08:46:50.167Z,16.46
2022-09-26T08:50:09.757Z,16.58
2022-09-26T08:52:48.279Z,16.81
2022-09-26T08:55:25.164Z,16.80
2022-09-26T08:58:01.187Z,16.67
2022-09-26T09:00:39.217Z,16.46
2022-09-26T09:03:25.967Z,16.22
2022-09-26T09:06:04.801Z,16.09
2022-09-26T09:08:43.388Z,16.27
2022-09-26T09:11:59.476Z,16.51
2022-09-26T09:15:13.681Z,16.65
2022-09-26T09:18:14.646Z,17.97
2022-09-26T09:21:24.751Z,18.41
2022-09-26T09:24:25.191Z,18.08
2022-09-26T09:30:24.905Z,17.87
2022-09-26T09:33:41.585Z,17.79
2022-09-26T09:36:49.494Z,17.50
2022-09-26T09:39:45.395Z,17.20
2022-09-26T09:42:32.627Z,16.93
2022-09-26T09:45:22.438Z,16.84
2022-09-26T09:51:06.007Z,16.60
2022-09-26T09:53:59.362Z,16.47
2022-09-26T09:56:41.908Z,16.37
2022-09-26T09:59:31.674Z,16.27
2022-09-26T10:02:22.171Z,16.19
2022-09-26T10:05:09.159Z,16.13
2022-09-26T10:07:41.854Z,16.06
2022-09-26T10:10:44.264Z,16.04
2022-09-26T10:13:44.680Z,16.21
2022-09-26T10:16:36.629Z,16.28
2022-09-26T10:19:14.130Z,16.30
2022-09-26T10:21:50.615Z,16.25
2022-09-26T10:24:34.475Z,16.24
2022-09-26T10:27:25.424Z,16.24
2022-09-26T10:30:02.003Z,16.26
2022-09-26T10:32:52.780Z,16.22
2022-09-26T10:35:46.171Z,16.19
2022-09-26T10:38:28.796Z,16.21
2022-09-26T10:41:28.529Z,16.20
2022-09-26T10:44:01.581Z,16.20
2022-09-26T10:47:08.370Z,16.30
2022-09-26T10:50:03.516Z,16.57
2022-09-26T10:53:11.024Z,16.89
2022-09-26T10:55:48.689Z,17.05
2022-09-26T10:58:27.810Z,17.17
2022-09-26T11:01:03.559Z,17.23
2022-09-26T11:03:50.013Z,17.22
2022-09-26T11:06:41.540Z,17.20
2022-09-26T11:09:23.642Z,17.24
2022-09-26T11:12:34.445Z,17.37
2022-09-26T11:15:15.983Z,17.45
2022-09-26T11:17:53.478Z,17.47
2022-09-26T11:20:39.029Z,17.38
2022-09-26T11:23:31.713Z,17.22
2022-09-26T11:26:18.275Z,17.08
2022-09-26T11:28:55.101Z,17.03
2022-09-26T11:31:44.370Z,17.03
2022-09-26T11:34:36.252Z,17.04
2022-09-26T11:37:31.877Z,17.12
2022-09-26T11:40:23.862Z,17.18
2022-09-26T11:43:13.662Z,17.22
2022-09-26T11:46:04.330Z,17.28
2022-09-26T11:49:22.989Z,17.26
2022-09-26T11:52:30.622Z,17.29
2022-09-26T11:55:32.303Z,17.33
2022-09-26T11:58:35.220Z,17.41
2022-09-26T12:01:24.387Z,17.48
2022-09-26T12:04:19.463Z,17.56
2022-09-26T12:07:04.752Z,17.61
2022-09-26T12:09:58.113Z,17.64
2022-09-26T12:12:41.563Z,17.64
2022-09-26T12:15:23.693Z,17.71
2022-09-26T12:18:13.809Z,17.79
2022-09-26T12:20:58.076Z,17.79
2022-09-26T12:23:37.789Z,17.72
2022-09-26T12:26:20.723Z,17.70
2022-09-26T12:29:25.089Z,17.71
2022-09-26T12:32:15.908Z,17.73
2022-09-26T12:34:54.591Z,17.65
2022-09-26T12:37:49.248Z,17.51
2022-09-26T12:40:40.923Z,17.34
2022-09-26T12:43:41.805Z,17.23
2022-09-26T12:46:38.584Z,17.10
2022-09-26T12:49:33.156Z,17.04
2022-09-26T12:52:17.519Z,17.08
2022-09-26T12:55:17.059Z,17.15
2022-09-26T12:58:06.122Z,17.16
2022-09-26T13:00:43.055Z,17.18
2022-09-26T13:03:39.807Z,17.22
2022-09-26T13:06:35.930Z,17.22
2022-09-26T13:09:25.593Z,17.21
2022-09-26T13:12:09.751Z,17.21
2022-09-26T13:15:00.892Z,17.18
2022-09-26T13:17:37.273Z,17.16
2022-09-26T13:20:17.597Z,17.12
2022-09-26T13:22:56.702Z,17.05
2022-09-26T13:25:35.743Z,16.91
2022-09-26T13:28:13.599Z,16.79
2022-09-26T13:30:54.905Z,16.68
2022-09-26T13:33:34.498Z,16.60
2022-09-26T13:36:09.449Z,16.44
2022-09-26T13:38:53.547Z,16.13
2022-09-26T13:41:45.766Z,15.79
2022-09-26T13:44:30.659Z,15.39
2022-09-26T13:47:13.647Z,15.12
2022-09-26T13:49:58.917Z,14.94
2022-09-26T13:52:52.480Z,14.86
2022-09-26T13:55:26.478Z,14.80
2022-09-26T13:58:20.096Z,14.80
2022-09-26T14:00:57.799Z,14.80
2022-09-26T14:03:49.527Z,14.82
2022-09-26T14:06:32.228Z,14.87
2022-09-26T14:09:25.184Z,14.94
2022-09-26T14:12:21.600Z,15.00
2022-09-26T14:15:16.251Z,15.07
2022-09-26T14:18:17.497Z,15.06
2022-09-26T14:21:05.623Z,15.06
2022-09-26T14:23:43.944Z,15.07
2022-09-26T14:26:22.314Z,15.10
2022-09-26T14:29:00.086Z,15.09
2022-09-26T14:31:43.460Z,15.07
2022-09-26T14:34:21.698Z,15.01
2022-09-26T14:36:57.690Z,14.92
2022-09-26T14:39:44.621Z,14.87
2022-09-26T14:42:26.783Z,14.78
2022-09-26T14:45:02.534Z,14.78
2022-09-26T14:47:49.269Z,14.77
2022-09-26T14:50:26.304Z,14.74
2022-09-26T14:53:14.968Z,14.69
2022-09-26T14:56:01.040Z,14.60
2022-09-26T14:58:49.850Z,14.58
2022-09-26T15:01:30.080Z,14.59
2022-09-26T15:04:04.197Z,14.61
2022-09-26T15:06:47.579Z,14.66
2022-09-26T15:09:26.421Z,14.68
2022-09-26T15:12:03.546Z,14.66
2022-09-26T15:14:43.391Z,14.63
2022-09-26T15:17:23.500Z,14.59
2022-09-26T15:20:00.238Z,14.58
2022-09-26T15:22:35.405Z,14.57
2022-09-26T15:25:22.294Z,14.56
2022-09-26T15:27:56.754Z,14.53
2022-09-26T15:30:37.516Z,14.51
2022-09-26T15:33:18.763Z,14.47
2022-09-26T15:35:57.700Z,14.44
2022-09-26T15:38:30.569Z,14.42
2022-09-26T15:41:05.173Z,14.43
2022-09-26T15:43:38.716Z,14.45
2022-09-26T15:46:24.456Z,14.45
2022-09-26T15:48:57.435Z,14.46
2022-09-26T15:51:38.213Z,14.42
2022-09-26T15:54:21.707Z,14.36
2022-09-26T15:56:56.920Z,14.34
2022-09-26T15:59:35.414Z,14.37
2022-09-26T16:02:24.558Z,14.38
2022-09-26T16:04:57.973Z,14.41
2022-09-26T16:07:31.823Z,14.36
2022-09-26T16:10:09.469Z,14.33
2022-09-26T16:12:42.531Z,14.32
2022-09-26T16:15:19.739Z,14.31
2022-09-26T16:17:57.446Z,14.30
2022-09-26T16:20:34.188Z,14.31
2022-09-26T16:23:06.661Z,14.31
2022-09-26T16:25:54.959Z,14.33
2022-09-26T16:28:45.192Z,14.35
2022-09-26T16:31:28.821Z,14.36
2022-09-26T16:34:02.605Z,14.35
2022-09-26T16:36:36.236Z,14.33
2022-09-26T16:39:19.472Z,14.29
2022-09-26T16:42:02.645Z,14.27
2022-09-26T16:44:41.111Z,14.23
2022-09-26T16:47:35.799Z,14.20
2022-09-26T16:50:29.784Z,14.09
2022-09-26T16:53:06.679Z,13.94
2022-09-26T16:55:39.066Z,13.86
2022-09-26T16:58:16.070Z,13.80
2022-09-26T17:01:11.832Z,13.73
2022-09-26T17:03:46.884Z,13.69
2022-09-26T17:06:19.462Z,13.65
2022-09-26T17:08:52.580Z,13.64
2022-09-26T17:11:28.073Z,13.60
2022-09-26T17:14:00.570Z,13.55
2022-09-26T17:16:34.334Z,13.50
2022-09-26T17:19:06.772Z,13.44
2022-09-26T17:21:41.600Z,13.41
2022-09-26T17:24:18.086Z,13.36
2022-09-26T17:26:55.279Z,13.32
2022-09-26T17:29:31.646Z,13.30
2022-09-26T17:32:09.840Z,13.28
2022-09-26T17:34:44.604Z,13.28
2022-09-26T17:37:22.427Z,13.26
2022-09-26T17:39:55.407Z,13.21
2022-09-26T17:42:30.465Z,13.17
2022-09-26T17:45:05.473Z,13.11
2022-09-26T17:47:38.944Z,12.99
2022-09-26T17:50:18.407Z,12.95
2022-09-26T17:52:50.943Z,12.92
2022-09-26T17:55:24.813Z,12.86
2022-09-26T17:57:58.462Z,12.76
2022-09-26T18:00:40.379Z,12.70
2022-09-26T18:03:19.254Z,12.64
2022-09-26T18:05:52.105Z,12.57
2022-09-26T18:08:28.146Z,12.54
2022-09-26T18:11:03.517Z,12.53
2022-09-26T18:13:39.906Z,12.50
2022-09-26T18:16:19.152Z,12.46
2022-09-26T18:18:52.035Z,12.42
2022-09-26T18:21:26.429Z,12.37
2022-09-26T18:24:02.345Z,12.34
2022-09-26T18:26:42.159Z,12.28
2022-09-26T18:29:17.434Z,12.21
2022-09-26T18:31:49.922Z,12.13
2022-09-26T18:34:22.139Z,12.08
2022-09-26T18:36:57.165Z,12.04
2022-09-26T18:39:29.834Z,12.03
2022-09-26T18:42:09.281Z,12.05
2022-09-26T18:44:44.045Z,12.03
2022-09-26T18:47:21.902Z,12.01
2022-09-26T18:49:55.288Z,11.98
2022-09-26T18:52:31.096Z,11.93
2022-09-26T18:55:33.106Z,11.92
2022-09-26T18:58:24.148Z,11.86
2022-09-26T19:00:59.942Z,11.79
2022-09-26T19:03:36.444Z,11.72
2022-09-26T19:06:12.935Z,11.67
2022-09-26T19:08:47.325Z,11.66
2022-09-26T19:11:22.585Z,11.62
2022-09-26T19:13:57.148Z,11.57
2022-09-26T19:16:29.866Z,11.52
2022-09-26T19:19:03.054Z,11.47
2022-09-26T19:21:37.610Z,11.40
2022-09-26T19:24:20.767Z,11.33
2022-09-26T19:26:57.148Z,11.28
2022-09-26T19:29:34.046Z,11.22
2022-09-26T19:32:17.621Z,11.14
2022-09-26T19:34:54.032Z,11.06
2022-09-26T19:37:26.880Z,10.95
2022-09-26T19:39:59.537Z,10.87
2022-09-26T19:42:32.579Z,10.84
2022-09-26T19:45:05.260Z,10.80
2022-09-26T19:47:39.253Z,10.75
2022-09-26T19:50:17.344Z,10.70
2022-09-26T19:52:50.160Z,10.66
2022-09-26T19:55:26.573Z,10.61
2022-09-26T19:58:01.783Z,10.59
2022-09-26T20:00:42.532Z,10.60
2022-09-26T20:03:20.754Z,10.63
2022-09-26T20:05:53.767Z,10.63
2022-09-26T20:08:29.074Z,10.64
2022-09-26T20:11:01.649Z,10.65
2022-09-26T20:13:54.742Z,10.63
2022-09-26T20:16:28.848Z,10.59
2022-09-26T20:19:01.903Z,10.58
2022-09-26T20:21:35.352Z,10.61
2022-09-26T20:24:14.578Z,10.63
2022-09-26T20:26:50.086Z,10.64
2022-09-26T20:29:22.461Z,10.64
2022-09-26T20:31:57.390Z,10.62
2022-09-26T20:34:30.274Z,10.59
2022-09-26T20:37:02.950Z,10.57
2022-09-26T20:39:35.455Z,10.53
2022-09-26T20:42:08.925Z,10.47
2022-09-26T20:44:41.547Z,10.40
2022-09-26T20:47:19.997Z,10.35
2022-09-26T20:49:55.376Z,10.32
2022-09-26T20:52:30.239Z,10.26
2022-09-26T20:55:02.496Z,10.19
2022-09-26T20:57:35.168Z,10.14
2022-09-26T21:00:11.515Z,10.10
2022-09-26T21:02:45.032Z,10.08
2022-09-26T21:05:24.529Z,10.05
2022-09-26T21:07:58.818Z,10.03
2022-09-26T21:10:34.879Z,10.02
2022-09-26T21:13:07.200Z,10.01
2022-09-26T21:15:41.655Z,9.98
2022-09-26T21:18:25.323Z,9.93
2022-09-26T21:21:04.040Z,9.86
2022-09-26T21:24:05.572Z,9.78
2022-09-26T21:26:40.700Z,9.73
2022-09-26T21:29:17.265Z,9.71
2022-09-26T21:31:51.689Z,9.69
2022-09-26T21:34:28.681Z,9.68
2022-09-26T21:37:04.095Z,9.65
2022-09-26T21:39:39.068Z,9.62
2022-09-26T21:42:11.376Z,9.56
2022-09-26T21:44:47.844Z,9.51
2022-09-26T21:47:20.243Z,9.47
2022-09-26T21:49:54.585Z,9.45
2022-09-26T21:52:34.003Z,9.44
2022-09-26T21:55:10.534Z,9.44
2022-09-26T21:57:46.159Z,9.45
2022-09-26T22:00:18.759Z,9.43
2022-09-26T22:02:51.367Z,9.35
2022-09-26T22:05:25.758Z,9.32
2022-09-26T22:07:59.627Z,9.33
2022-09-26T22:10:34.168Z,9.35
2022-09-26T22:13:06.835Z,9.35
2022-09-26T22:15:39.407Z,9.36
2022-09-26T22:18:11.799Z,9.34
2022-09-26T22:20:45.769Z,9.32
2022-09-26T22:23:18.759Z,9.29
2022-09-26T22:25:55.529Z,9.25
2022-09-26T22:28:28.052Z,9.24
2022-09-26T22:31:03.224Z,9.20
2022-09-26T22:33:36.411Z,9.17
2022-09-26T22:36:10.041Z,9.10
2022-09-26T22:38:42.300Z,9.03
2022-09-26T22:41:14.654Z,8.99
2022-09-26T22:43:46.893Z,8.98
2022-09-26T22:46:19.267Z,8.96
2022-09-26T22:48:51.764Z,8.93
2022-09-26T22:51:24.217Z,8.90
2022-09-26T22:53:56.519Z,8.86
2022-09-26T22:56:29.992Z,8.79
2022-09-26T22:59:03.204Z,8.73
2022-09-26T23:01:35.667Z,8.69
2022-09-26T23:04:08.011Z,8.66
2022-09-26T23:06:40.439Z,8.61
2022-09-26T23:09:12.985Z,8.58
2022-09-26T23:11:47.237Z,8.55
2022-09-26T23:14:22.027Z,8.49
2022-09-26T23:16:55.164Z,8.44
2022-09-26T23:19:27.921Z,8.40
2022-09-26T23:22:03.105Z,8.37
2022-09-26T23:24:35.735Z,8.35
2022-09-26T23:27:08.282Z,8.33
2022-09-26T23:29:47.058Z,8.31
2022-09-26T23:32:20.473Z,8.28
2022-09-26T23:34:53.159Z,8.26
2022-09-26T23:37:25.601Z,8.25
2022-09-26T23:40:01.052Z,8.24
2022-09-26T23:42:37.835Z,8.21
2022-09-26T23:45:12.255Z,8.17
2022-09-26T23:47:47.574Z,8.13
2022-09-26T23:50:20.000Z,8.10
2022-09-26T23:52:52.651Z,8.06
2022-09-26T23:55:25.996Z,8.02
2022-09-26T23:58:01.173Z,7.98
